createdAt,value
2022-08-19T00:00:46.129Z,100269.00
2022-08-19T00:03:14.712Z,100267.80
2022-08-19T00:05:43.911Z,100268.40
2022-08-19T00:08:12.802Z,100274.20
2022-08-19T00:10:41.488Z,100268.60
2022-08-19T00:13:10.792Z,100262.60
2022-08-19T00:15:39.374Z,100265.60
2022-08-19T00:18:07.959Z,100254.40
2022-08-19T00:20:36.543Z,100260.80
2022-08-19T00:23:05.333Z,100264.40
2022-08-19T00:25:34.939Z,100266.00
2022-08-19T00:28:05.559Z,100266.00
2022-08-19T00:30:34.259Z,100265.00
2022-08-19T00:33:02.844Z,100260.00
2022-08-19T00:35:31.431Z,100260.20
2022-08-19T00:38:00.933Z,100259.20
2022-08-19T00:40:29.623Z,100257.40
2022-08-19T00:42:58.206Z,100256.60
2022-08-19T00:45:31.806Z,100260.00
2022-08-19T00:48:04.682Z,100262.80
2022-08-19T00:50:34.956Z,100259.00
2022-08-19T00:53:05.516Z,100261.80
2022-08-19T00:55:35.054Z,100263.00
2022-08-19T00:58:08.713Z,100279.40
2022-08-19T01:00:38.860Z,100279.00
2022-08-19T01:03:14.763Z,100275.40
2022-08-19T01:05:46.012Z,100274.60
2022-08-19T01:08:16.953Z,100286.60
2022-08-19T01:10:51.296Z,100281.80
2022-08-19T01:13:24.875Z,100273.80
2022-08-19T01:16:07.612Z,100271.80
2022-08-19T01:18:42.133Z,100259.00
2022-08-19T01:21:43.808Z,100258.00
2022-08-19T01:24:12.428Z,100259.40
2022-08-19T01:26:44.982Z,100253.40
2022-08-19T01:29:15.387Z,100250.80
2022-08-19T01:31:44.122Z,100257.60
2022-08-19T01:34:12.706Z,100254.40
2022-08-19T01:36:46.977Z,100253.20
2022-08-19T01:39:23.391Z,100248.40
2022-08-19T01:41:55.545Z,100249.40
2022-08-19T01:44:25.484Z,100248.00
2022-08-19T01:46:54.366Z,100244.40
2022-08-19T01:49:26.320Z,100241.60
2022-08-19T01:51:55.539Z,100240.20
2022-08-19T01:54:27.571Z,100250.40
2022-08-19T01:57:08.776Z,100244.40
2022-08-19T01:59:40.639Z,100253.00
2022-08-19T02:02:10.039Z,100252.00
2022-08-19T02:04:39.853Z,100244.20
2022-08-19T02:07:09.494Z,100233.80
2022-08-19T02:09:38.456Z,100237.40
2022-08-19T02:12:10.084Z,100238.00
2022-08-19T02:14:38.696Z,100231.60
2022-08-19T02:17:07.894Z,100230.00
2022-08-19T02:19:36.480Z,100229.60
2022-08-19T02:22:08.954Z,100231.40
2022-08-19T02:24:37.539Z,100235.60
2022-08-19T02:27:07.123Z,100219.80
2022-08-19T02:29:35.731Z,100213.40
2022-08-19T02:32:05.707Z,100215.20
2022-08-19T02:34:35.109Z,100214.80
2022-08-19T02:37:04.029Z,100205.80
2022-08-19T02:39:33.060Z,100196.80
2022-08-19T02:42:03.466Z,100204.00
2022-08-19T02:44:32.184Z,100212.60
2022-08-19T02:47:00.840Z,100214.00
2022-08-19T02:49:29.629Z,100217.40
2022-08-19T02:52:04.873Z,100198.80
2022-08-19T02:54:33.761Z,100183.00
2022-08-19T02:57:02.346Z,100169.20
2022-08-19T02:59:33.415Z,100183.20
2022-08-19T03:02:01.971Z,100179.40
2022-08-19T03:04:31.038Z,100174.80
2022-08-19T03:07:02.681Z,100171.80
2022-08-19T03:09:39.809Z,100169.20
2022-08-19T03:12:08.613Z,100166.40
2022-08-19T03:14:38.201Z,100175.00
2022-08-19T03:17:09.242Z,100174.80
2022-08-19T03:19:37.833Z,100175.00
2022-08-19T03:22:06.724Z,100169.80
2022-08-19T03:24:35.308Z,100168.40
2022-08-19T03:27:06.247Z,100179.80
2022-08-19T03:29:43.808Z,100178.60
2022-08-19T03:32:24.449Z,100184.40
2022-08-19T03:35:02.012Z,100188.20
2022-08-19T03:37:30.589Z,100184.00
2022-08-19T03:39:59.212Z,100183.80
2022-08-19T03:42:38.621Z,100181.60
2022-08-19T03:45:17.642Z,100177.00
2022-08-19T03:47:46.738Z,100180.20
2022-08-19T03:50:16.142Z,100176.00
2022-08-19T03:52:49.889Z,100174.20
2022-08-19T03:55:20.205Z,100177.40
2022-08-19T03:57:49.679Z,100179.60
2022-08-19T04:00:18.746Z,100177.40
2022-08-19T04:02:58.247Z,100171.80
2022-08-19T04:05:30.594Z,100171.00
2022-08-19T04:08:00.515Z,100166.80
2022-08-19T04:10:30.111Z,100156.40
2022-08-19T04:12:58.798Z,100155.60
2022-08-19T04:15:30.167Z,100155.80
2022-08-19T04:17:59.039Z,100161.00
2022-08-19T04:20:27.828Z,100162.60
2022-08-19T04:22:58.389Z,100167.00
2022-08-19T04:25:27.363Z,100176.00
2022-08-19T04:27:55.941Z,100196.20
2022-08-19T04:30:24.934Z,100218.20
2022-08-19T04:32:54.126Z,100219.40
2022-08-19T04:35:25.039Z,100216.20
2022-08-19T04:37:53.859Z,100224.80
2022-08-19T04:40:41.182Z,100232.00
2022-08-19T04:43:09.870Z,100221.40
2022-08-19T04:45:43.477Z,100220.80
2022-08-19T04:48:26.267Z,100215.80
2022-08-19T04:50:59.800Z,100218.40
2022-08-19T04:53:37.632Z,100221.00
2022-08-19T04:56:16.313Z,100216.20
2022-08-19T04:58:46.151Z,100217.20
2022-08-19T05:01:38.570Z,100217.80
2022-08-19T05:04:08.997Z,100217.20
2022-08-19T05:06:37.888Z,100210.00
2022-08-19T05:09:07.191Z,100209.40
2022-08-19T05:11:41.333Z,100211.40
2022-08-19T05:14:14.145Z,100216.60
2022-08-19T05:16:42.875Z,100215.60
2022-08-19T05:19:30.198Z,100228.00
2022-08-19T05:22:21.515Z,100236.80
2022-08-19T05:25:11.201Z,100224.80
2022-08-19T05:27:39.677Z,100223.20
2022-08-19T05:30:10.241Z,100221.60
2022-08-19T05:32:40.195Z,100218.80
2022-08-19T05:35:10.706Z,100222.20
2022-08-19T05:37:41.734Z,100212.00
2022-08-19T05:40:11.667Z,100210.80
2022-08-19T05:42:40.400Z,100212.40
2022-08-19T05:45:10.098Z,100214.60
2022-08-19T05:47:40.615Z,100212.60
2022-08-19T05:50:11.887Z,100221.40
2022-08-19T05:52:45.831Z,100217.60
2022-08-19T05:55:22.149Z,100212.20
2022-08-19T05:57:51.051Z,100212.20
2022-08-19T06:00:24.466Z,100208.20
2022-08-19T06:02:53.436Z,100211.40
2022-08-19T06:05:22.191Z,100214.60
2022-08-19T06:07:50.776Z,100210.40
2022-08-19T06:10:19.405Z,100198.40
2022-08-19T06:12:48.091Z,100196.20
2022-08-19T06:15:17.193Z,100193.00
2022-08-19T06:17:45.874Z,100197.00
2022-08-19T06:20:16.598Z,100196.80
2022-08-19T06:22:50.762Z,100196.60
2022-08-19T06:25:19.922Z,100199.60
2022-08-19T06:28:11.517Z,100203.40
2022-08-19T06:30:38.390Z,100214.00
2022-08-19T06:33:06.975Z,100216.40
2022-08-19T06:35:41.723Z,100216.60
2022-08-19T06:38:10.859Z,100217.20
2022-08-19T06:40:39.890Z,100221.60
2022-08-19T06:43:09.546Z,100227.20
2022-08-19T06:45:39.905Z,100227.00
2022-08-19T06:48:08.723Z,100225.80
2022-08-19T06:50:39.473Z,100231.80
2022-08-19T06:53:09.476Z,100242.00
2022-08-19T06:55:38.877Z,100252.40
2022-08-19T06:58:07.566Z,100250.20
2022-08-19T07:00:36.150Z,100241.00
2022-08-19T07:03:08.818Z,100241.00
2022-08-19T07:05:45.698Z,100239.60
2022-08-19T07:08:15.726Z,100236.00
2022-08-19T07:10:46.320Z,100238.00
2022-08-19T07:13:15.365Z,100231.40
2022-08-19T07:15:44.142Z,100225.20
2022-08-19T07:18:12.726Z,100226.20
2022-08-19T07:20:42.934Z,100224.00
2022-08-19T07:23:15.928Z,100226.20
2022-08-19T07:25:46.039Z,100225.00
2022-08-19T07:28:23.944Z,100224.60
2022-08-19T07:30:54.185Z,100230.40
2022-08-19T07:33:24.202Z,100233.80
2022-08-19T07:35:56.677Z,100241.00
2022-08-19T07:38:26.081Z,100245.40
2022-08-19T07:40:55.894Z,100245.60
2022-08-19T07:43:34.763Z,100248.40
2022-08-19T07:46:04.404Z,100247.40
2022-08-19T07:48:33.710Z,100246.00
2022-08-19T07:51:12.145Z,100247.80
2022-08-19T07:53:44.506Z,100250.80
2022-08-19T07:56:16.892Z,100244.40
2022-08-19T07:58:47.908Z,100243.00
2022-08-19T08:01:22.081Z,100241.80
2022-08-19T08:04:12.547Z,100250.40
2022-08-19T08:06:59.973Z,100260.40
2022-08-19T08:09:39.183Z,100267.20
2022-08-19T08:12:33.603Z,100265.20
2022-08-19T08:15:12.700Z,100266.40
2022-08-19T08:17:49.109Z,100272.00
2022-08-19T08:20:20.344Z,100275.00
2022-08-19T08:23:08.179Z,100267.80
2022-08-19T08:25:37.786Z,100276.20
2022-08-19T08:28:06.584Z,100267.80
2022-08-19T08:30:37.207Z,100269.60
2022-08-19T08:33:06.176Z,100263.40
2022-08-19T08:35:34.991Z,100266.40
2022-08-19T08:38:06.119Z,100269.80
2022-08-19T08:41:07.392Z,100269.40
2022-08-19T08:43:45.801Z,100270.40
2022-08-19T08:46:43.262Z,100270.20
2022-08-19T08:49:21.779Z,100265.40
2022-08-19T08:52:03.471Z,100258.20
2022-08-19T08:54:49.074Z,100247.60
2022-08-19T08:57:48.769Z,100249.00
2022-08-19T09:00:46.844Z,100255.80
2022-08-19T09:03:24.807Z,100260.20
2022-08-19T09:06:05.827Z,100257.20
2022-08-19T09:08:44.076Z,100261.40
2022-08-19T09:11:42.684Z,100263.20
2022-08-19T09:14:52.013Z,100266.60
2022-08-19T09:17:32.071Z,100258.40
2022-08-19T09:20:22.879Z,100258.40
2022-08-19T09:22:51.899Z,100260.40
2022-08-19T09:25:26.945Z,100259.40
2022-08-19T09:28:02.666Z,100257.60
2022-08-19T09:30:36.324Z,100257.00
2022-08-19T09:33:05.924Z,100263.60
2022-08-19T09:35:50.067Z,100262.20
2022-08-19T09:38:23.261Z,100269.80
2022-08-19T09:40:51.847Z,100273.20
2022-08-19T09:43:33.230Z,100273.40
2022-08-19T09:46:08.860Z,100276.00
2022-08-19T09:48:39.171Z,100271.00
2022-08-19T09:51:11.795Z,100279.80
2022-08-19T09:53:41.394Z,100281.80
2022-08-19T09:56:11.223Z,100276.80
2022-08-19T09:58:41.239Z,100276.40
2022-08-19T10:01:11.020Z,100278.20
2022-08-19T10:03:39.621Z,100283.00
2022-08-19T10:06:14.656Z,100285.20
2022-08-19T10:08:50.239Z,100285.00
2022-08-19T10:11:27.546Z,100289.00
2022-08-19T10:14:08.984Z,100292.60
2022-08-19T10:16:39.701Z,100291.40
2022-08-19T10:19:10.447Z,100292.60
2022-08-19T10:21:40.441Z,100292.80
2022-08-19T10:24:09.465Z,100295.40
2022-08-19T10:26:43.167Z,100294.20
2022-08-19T10:29:12.965Z,100288.60
2022-08-19T10:32:01.314Z,100293.00
2022-08-19T10:34:32.197Z,100300.20
2022-08-19T10:37:05.962Z,100299.20
2022-08-19T10:39:43.356Z,100290.60
2022-08-19T10:42:14.508Z,100296.60
2022-08-19T10:44:43.764Z,100299.00
2022-08-19T10:47:17.369Z,100292.00
2022-08-19T10:50:15.243Z,100293.80
2022-08-19T10:52:50.396Z,100297.80
2022-08-19T10:55:43.888Z,100292.00
2022-08-19T10:58:23.528Z,100294.40
2022-08-19T11:00:59.797Z,100296.80
2022-08-19T11:03:32.068Z,100303.20
2022-08-19T11:06:07.697Z,100296.20
2022-08-19T11:08:38.860Z,100300.40
2022-08-19T11:11:09.489Z,100303.60
2022-08-19T11:13:42.168Z,100306.20
2022-08-19T11:16:16.284Z,100301.20
2022-08-19T11:18:50.131Z,100298.80
2022-08-19T11:21:27.235Z,100293.80
2022-08-19T11:23:59.813Z,100303.20
2022-08-19T11:26:31.292Z,100311.20
2022-08-19T11:29:01.585Z,100318.60
2022-08-19T11:31:36.669Z,100326.20
2022-08-19T11:34:11.738Z,100317.80
2022-08-19T11:36:43.975Z,100323.00
2022-08-19T11:39:16.232Z,100326.60
2022-08-19T11:41:45.344Z,100341.00
2022-08-19T11:44:15.533Z,100338.80
2022-08-19T11:46:47.608Z,100342.00
2022-08-19T11:49:20.131Z,100338.80
2022-08-19T11:51:51.356Z,100349.80
2022-08-19T11:54:20.039Z,100345.00
2022-08-19T11:56:50.365Z,100350.60
2022-08-19T11:59:18.950Z,100356.20
2022-08-19T12:01:47.746Z,100354.60
2022-08-19T12:04:16.379Z,100361.80
2022-08-19T12:06:47.365Z,100368.00
2022-08-19T12:09:16.873Z,100368.20
2022-08-19T12:11:45.876Z,100369.40
2022-08-19T12:14:15.288Z,100371.40
2022-08-19T12:16:50.374Z,100371.20
2022-08-19T12:19:22.439Z,100371.80
2022-08-19T12:21:54.216Z,100376.20
2022-08-19T12:24:24.556Z,100376.80
2022-08-19T12:26:55.073Z,100372.00
2022-08-19T12:29:25.412Z,100378.20
2022-08-19T12:31:54.002Z,100386.00
2022-08-19T12:34:22.684Z,100393.60
2022-08-19T12:36:51.271Z,100401.20
2022-08-19T12:39:19.857Z,100405.60
2022-08-19T12:41:54.501Z,100414.00
2022-08-19T12:44:31.858Z,100416.80
2022-08-19T12:47:04.107Z,100415.40
2022-08-19T12:49:53.506Z,100414.20
2022-08-19T12:52:28.342Z,100417.60
2022-08-19T12:54:58.453Z,100412.40
2022-08-19T12:57:32.792Z,100417.40
2022-08-19T13:00:23.527Z,100416.00
2022-08-19T13:02:53.962Z,100423.60
2022-08-19T13:05:27.041Z,100426.20
2022-08-19T13:07:58.677Z,100427.00
2022-08-19T13:10:32.757Z,100422.80
2022-08-19T13:13:02.888Z,100420.00
2022-08-19T13:15:37.054Z,100417.00
2022-08-19T13:18:05.711Z,100416.40
2022-08-19T13:20:34.484Z,100417.40
2022-08-19T13:23:05.936Z,100416.60
2022-08-19T13:25:34.930Z,100418.00
2022-08-19T13:28:05.447Z,100420.80
2022-08-19T13:30:53.193Z,100422.00
2022-08-19T13:33:22.087Z,100417.00
2022-08-19T13:36:01.904Z,100416.60
2022-08-19T13:38:31.747Z,100413.80
2022-08-19T13:41:11.120Z,100404.80
2022-08-19T13:43:41.005Z,100404.80
2022-08-19T13:46:15.139Z,100399.20
2022-08-19T13:48:44.007Z,100404.40
2022-08-19T13:51:12.693Z,100398.20
2022-08-19T13:53:47.754Z,100395.60
2022-08-19T13:56:24.175Z,100396.00
2022-08-19T13:58:55.137Z,100397.00
2022-08-19T14:01:28.125Z,100393.60
2022-08-19T14:03:56.708Z,100393.60
2022-08-19T14:06:26.726Z,100391.00
2022-08-19T14:08:55.416Z,100382.00
2022-08-19T14:11:24.408Z,100376.60
2022-08-19T14:13:53.197Z,100374.40
2022-08-19T14:16:23.012Z,100371.60
2022-08-19T14:18:52.823Z,100371.00
2022-08-19T14:21:25.717Z,100365.80
2022-08-19T14:23:54.865Z,100369.00
2022-08-19T14:26:24.917Z,100375.20
2022-08-19T14:28:54.336Z,100375.00
2022-08-19T14:31:29.063Z,100375.80
2022-08-19T14:33:59.694Z,100379.40
2022-08-19T14:36:28.482Z,100382.40
2022-08-19T14:38:58.913Z,100387.80
2022-08-19T14:41:28.519Z,100394.80
2022-08-19T14:43:58.393Z,100400.80
2022-08-19T14:46:29.770Z,100403.20
2022-08-19T14:48:59.858Z,100403.60
2022-08-19T14:51:29.411Z,100406.40
2022-08-19T14:53:58.739Z,100404.80
2022-08-19T14:56:30.543Z,100407.00
2022-08-19T14:59:02.329Z,100412.00
2022-08-19T15:01:31.174Z,100409.40
2022-08-19T15:03:59.980Z,100409.20
2022-08-19T15:06:29.417Z,100409.40
2022-08-19T15:09:02.061Z,100414.20
2022-08-19T15:11:34.068Z,100409.80
2022-08-19T15:14:03.064Z,100409.20
2022-08-19T15:16:31.738Z,100408.00
2022-08-19T15:19:01.447Z,100403.80
2022-08-19T15:21:31.568Z,100399.80
2022-08-19T15:24:02.321Z,100398.20
2022-08-19T15:26:33.567Z,100402.40
2022-08-19T15:29:04.224Z,100402.80
2022-08-19T15:31:38.302Z,100411.20
2022-08-19T15:34:08.730Z,100409.00
2022-08-19T15:36:38.130Z,100408.40
2022-08-19T15:39:07.736Z,100412.00
2022-08-19T15:41:37.290Z,100407.60
2022-08-19T15:44:13.503Z,100409.60
2022-08-19T15:46:45.751Z,100411.20
2022-08-19T15:49:18.530Z,100417.40
2022-08-19T15:51:52.285Z,100427.40
2022-08-19T15:54:22.441Z,100423.40
2022-08-19T15:57:11.251Z,100423.60
2022-08-19T16:00:02.448Z,100429.20
2022-08-19T16:02:53.863Z,100436.80
2022-08-19T16:05:45.817Z,100438.20
2022-08-19T16:08:15.829Z,100441.20
2022-08-19T16:10:44.518Z,100437.80
2022-08-19T16:13:13.205Z,100440.40
2022-08-19T16:15:43.426Z,100446.60
2022-08-19T16:18:12.215Z,100448.20
2022-08-19T16:20:41.312Z,100442.60
2022-08-19T16:23:10.612Z,100442.00
2022-08-19T16:25:39.710Z,100445.80
2022-08-19T16:28:10.110Z,100446.60
2022-08-19T16:30:41.173Z,100445.00
2022-08-19T16:33:11.064Z,100448.00
2022-08-19T16:35:39.885Z,100447.40
2022-08-19T16:38:08.469Z,100446.00
2022-08-19T16:40:37.257Z,100442.20
2022-08-19T16:43:06.164Z,100441.80
2022-08-19T16:45:34.842Z,100438.40
2022-08-19T16:48:04.242Z,100440.80
2022-08-19T16:50:48.758Z,100448.20
2022-08-19T16:53:23.704Z,100455.00
2022-08-19T16:56:00.102Z,100451.80
2022-08-19T16:58:31.422Z,100457.60
2022-08-19T17:01:04.250Z,100458.40
2022-08-19T17:03:35.887Z,100458.40
2022-08-19T17:06:17.852Z,100452.60
2022-08-19T17:08:52.526Z,100454.40
2022-08-19T17:11:24.886Z,100458.60
2022-08-19T17:13:55.594Z,100458.80
2022-08-19T17:16:28.016Z,100459.40
2022-08-19T17:18:59.830Z,100460.20
2022-08-19T17:21:32.774Z,100457.80
2022-08-19T17:24:04.892Z,100467.40
2022-08-19T17:26:33.698Z,100457.40
2022-08-19T17:29:02.691Z,100457.80
2022-08-19T17:31:32.915Z,100452.00
2022-08-19T17:34:03.748Z,100450.60
2022-08-19T17:36:34.368Z,100454.60
2022-08-19T17:39:05.392Z,100459.60
2022-08-19T17:41:34.917Z,100464.20
2022-08-19T17:44:05.061Z,100465.60
2022-08-19T17:46:34.355Z,100475.20
2022-08-19T17:49:03.450Z,100478.80
2022-08-19T17:51:36.033Z,100479.80
2022-08-19T17:54:06.764Z,100487.00
2022-08-19T17:56:35.450Z,100491.60
2022-08-19T17:59:06.336Z,100488.00
2022-08-19T18:01:53.916Z,100490.20
2022-08-19T18:04:26.473Z,100485.40
2022-08-19T18:06:55.919Z,100478.60
2022-08-19T18:09:41.863Z,100479.20
2022-08-19T18:12:16.620Z,100481.80
2022-08-19T18:14:45.309Z,100479.40
2022-08-19T18:17:19.327Z,100488.60
2022-08-19T18:19:48.315Z,100494.40
2022-08-19T18:22:25.403Z,100503.80
2022-08-19T18:24:55.109Z,100509.80
2022-08-19T18:27:27.246Z,100512.40
2022-08-19T18:29:59.804Z,100511.00
2022-08-19T18:32:35.205Z,100513.60
2022-08-19T18:35:16.583Z,100516.20
2022-08-19T18:37:46.648Z,100523.00
2022-08-19T18:40:40.942Z,100528.20
2022-08-19T18:43:13.639Z,100536.80
2022-08-19T18:46:03.418Z,100540.00
2022-08-19T18:48:57.332Z,100546.00
2022-08-19T18:51:30.626Z,100543.40
2022-08-19T18:54:01.553Z,100546.60
2022-08-19T18:56:35.824Z,100535.60
2022-08-19T18:59:04.672Z,100533.60
2022-08-19T19:01:40.927Z,100530.00
2022-08-19T19:04:13.638Z,100546.20
2022-08-19T19:06:43.225Z,100560.60
2022-08-19T19:09:18.988Z,100560.60
2022-08-19T19:11:55.881Z,100560.00
2022-08-19T19:14:50.572Z,100562.80
2022-08-19T19:17:26.203Z,100572.40
2022-08-19T19:19:54.974Z,100571.80
2022-08-19T19:22:24.825Z,100569.80
2022-08-19T19:24:57.191Z,100561.40
2022-08-19T19:27:26.483Z,100554.80
2022-08-19T19:29:56.376Z,100546.20
2022-08-19T19:32:29.936Z,100539.60
2022-08-19T19:34:59.918Z,100537.80
2022-08-19T19:37:28.710Z,100540.60
2022-08-19T19:39:57.559Z,100538.20
2022-08-19T19:42:26.859Z,100543.40
2022-08-19T19:44:56.878Z,100548.20
2022-08-19T19:47:28.498Z,100548.00
2022-08-19T19:50:15.306Z,100549.80
2022-08-19T19:52:47.281Z,100551.00
2022-08-19T19:55:21.082Z,100558.00
2022-08-19T19:57:50.573Z,100564.80
2022-08-19T20:00:21.997Z,100564.60
2022-08-19T20:02:51.681Z,100555.40
2022-08-19T20:05:21.920Z,100554.20
2022-08-19T20:08:12.545Z,100549.00
2022-08-19T20:10:43.688Z,100547.00
2022-08-19T20:13:17.700Z,100548.20
2022-08-19T20:15:46.967Z,100546.00
2022-08-19T20:18:15.792Z,100551.60
2022-08-19T20:20:46.832Z,100558.00
2022-08-19T20:23:15.526Z,100555.80
2022-08-19T20:25:44.615Z,100570.60
2022-08-19T20:28:13.296Z,100573.00
2022-08-19T20:30:46.298Z,100576.20
2022-08-19T20:33:16.512Z,100576.00
2022-08-19T20:35:46.535Z,100577.40
2022-08-19T20:38:16.137Z,100580.00
2022-08-19T20:40:44.926Z,100575.40
2022-08-19T20:43:14.255Z,100568.00
2022-08-19T20:45:42.922Z,100572.40
2022-08-19T20:48:14.268Z,100573.60
2022-08-19T20:50:43.053Z,100570.20
2022-08-19T20:53:20.634Z,100564.60
2022-08-19T20:55:50.462Z,100565.40
2022-08-19T20:58:21.723Z,100560.60
2022-08-19T21:00:54.534Z,100564.60
2022-08-19T21:03:31.481Z,100568.80
2022-08-19T21:06:00.070Z,100580.40
2022-08-19T21:08:29.055Z,100584.80
2022-08-19T21:10:59.127Z,100594.00
2022-08-19T21:13:27.860Z,100598.20
2022-08-19T21:15:56.755Z,100589.60
2022-08-19T21:18:27.052Z,100593.20
2022-08-19T21:20:56.583Z,100586.80
2022-08-19T21:23:29.000Z,100587.80
2022-08-19T21:26:00.606Z,100598.20
2022-08-19T21:28:36.160Z,100602.20
2022-08-19T21:31:10.564Z,100606.80
2022-08-19T21:33:39.373Z,100601.20
2022-08-19T21:36:08.887Z,100600.80
2022-08-19T21:38:38.304Z,100604.20
2022-08-19T21:41:07.887Z,100598.40
2022-08-19T21:43:37.854Z,100597.60
2022-08-19T21:46:07.515Z,100597.60
2022-08-19T21:48:36.845Z,100590.60
2022-08-19T21:51:05.605Z,100592.40
2022-08-19T21:53:34.894Z,100590.00
2022-08-19T21:56:06.667Z,100597.20
2022-08-19T21:58:36.779Z,100598.20
2022-08-19T22:01:08.283Z,100610.60
2022-08-19T22:03:38.635Z,100610.40
2022-08-19T22:06:07.658Z,100606.00
2022-08-19T22:08:37.063Z,100601.80
2022-08-19T22:11:05.761Z,100601.40
2022-08-19T22:13:40.260Z,100601.60
2022-08-19T22:16:10.416Z,100595.60
2022-08-19T22:18:39.080Z,100590.00
2022-08-19T22:21:11.579Z,100593.80
2022-08-19T22:23:47.124Z,100589.40
2022-08-19T22:26:18.084Z,100583.80
2022-08-19T22:28:46.627Z,100575.80
2022-08-19T22:31:16.549Z,100571.80
2022-08-19T22:33:45.638Z,100568.20
2022-08-19T22:36:14.738Z,100559.40
2022-08-19T22:38:43.934Z,100546.80
2022-08-19T22:41:12.520Z,100545.00
2022-08-19T22:43:41.205Z,100553.60
2022-08-19T22:46:16.901Z,100560.00
2022-08-19T22:48:47.891Z,100559.80
2022-08-19T22:51:43.413Z,100557.80
2022-08-19T22:54:12.514Z,100557.80
2022-08-19T22:56:41.198Z,100556.40
2022-08-19T22:59:10.704Z,100556.20
2022-08-19T23:01:42.155Z,100552.20
2022-08-19T23:04:11.050Z,100546.80
2022-08-19T23:06:42.177Z,100553.20
2022-08-19T23:09:16.617Z,100561.20
2022-08-19T23:11:47.238Z,100565.40
2022-08-19T23:14:17.763Z,100562.40
2022-08-19T23:16:50.999Z,100561.20
2022-08-19T23:19:21.398Z,100558.80
2022-08-19T23:21:50.383Z,100558.00
2022-08-19T23:24:19.798Z,100554.80
2022-08-19T23:27:07.423Z,100560.60
2022-08-19T23:29:54.951Z,100554.00
2022-08-19T23:32:25.793Z,100554.20
2022-08-19T23:34:56.637Z,100556.80
2022-08-19T23:37:25.722Z,100556.00
2022-08-19T23:39:54.449Z,100563.20
2022-08-19T23:42:23.916Z,100567.00
2022-08-19T23:44:53.089Z,100568.40
2022-08-19T23:47:22.211Z,100560.80
2022-08-19T23:49:51.216Z,100558.00
2022-08-19T23:52:20.304Z,100556.00
2022-08-19T23:54:48.987Z,100568.20
2022-08-19T23:57:17.778Z,100572.00
2022-08-19T23:59:46.570Z,100574.00
